sensor_id;sensor_type;location;lat;lon;timestamp;P1;durP1;ratioP1;P2;durP2;ratioP2
73104;SDS011;61296;50.526;30.792;2023-07-31T00:02:07;8.75;;;6.45;;
73104;SDS011;61296;50.526;30.792;2023-07-31T00:17:26;6.30;;;5.70;;
73104;SDS011;61296;50.526;30.792;2023-07-31T00:32:45;6.78;;;5.63;;
73104;SDS011;61296;50.526;30.792;2023-07-31T00:48:04;8.10;;;6.53;;
73104;SDS011;61296;50.526;30.792;2023-07-31T01:03:27;6.10;;;5.50;;
73104;SDS011;61296;50.526;30.792;2023-07-31T01:18:47;7.50;;;6.05;;
73104;SDS011;61296;50.526;30.792;2023-07-31T01:34:06;8.10;;;6.85;;
73104;SDS011;61296;50.526;30.792;2023-07-31T01:49:29;12.52;;;9.25;;
73104;SDS011;61296;50.526;30.792;2023-07-31T02:04:48;13.90;;;10.60;;
73104;SDS011;61296;50.526;30.792;2023-07-31T02:20:08;17.25;;;12.27;;
73104;SDS011;61296;50.526;30.792;2023-07-31T02:35:28;33.08;;;13.15;;
73104;SDS011;61296;50.526;30.792;2023-07-31T02:50:47;20.58;;;11.55;;
73104;SDS011;61296;50.526;30.792;2023-07-31T03:06:06;32.97;;;10.90;;
73104;SDS011;61296;50.526;30.792;2023-07-31T03:21:26;38.28;;;11.20;;
73104;SDS011;61296;50.526;30.792;2023-07-31T03:36:45;22.45;;;11.75;;
73104;SDS011;61296;50.526;30.792;2023-07-31T03:52:05;19.65;;;12.07;;
73104;SDS011;61296;50.526;30.792;2023-07-31T04:07:24;21.85;;;10.85;;
73104;SDS011;61296;50.526;30.792;2023-07-31T04:22:44;18.27;;;11.10;;
73104;SDS011;61296;50.526;30.792;2023-07-31T04:38:03;16.45;;;11.43;;
73104;SDS011;61296;50.526;30.792;2023-07-31T04:53:23;13.98;;;11.30;;
73104;SDS011;61296;50.526;30.792;2023-07-31T05:08:42;15.57;;;11.40;;
73104;SDS011;61296;50.526;30.792;2023-07-31T05:24:02;14.02;;;12.52;;
73104;SDS011;61296;50.526;30.792;2023-07-31T05:39:22;16.05;;;13.98;;
73104;SDS011;61296;50.526;30.792;2023-07-31T05:54:41;17.60;;;13.88;;
73104;SDS011;61296;50.526;30.792;2023-07-31T06:10:01;19.33;;;14.93;;
73104;SDS011;61296;50.526;30.792;2023-07-31T06:25:23;22.60;;;14.60;;
73104;SDS011;61296;50.526;30.792;2023-07-31T06:40:43;19.90;;;15.75;;
73104;SDS011;61296;50.526;30.792;2023-07-31T06:56:02;18.58;;;15.35;;
73104;SDS011;61296;50.526;30.792;2023-07-31T07:11:23;20.00;;;16.27;;
73104;SDS011;61296;50.526;30.792;2023-07-31T07:26:43;19.33;;;16.05;;
73104;SDS011;61296;50.526;30.792;2023-07-31T07:42:03;19.40;;;15.43;;
73104;SDS011;61296;50.526;30.792;2023-07-31T07:57:23;23.35;;;17.58;;
73104;SDS011;61296;50.526;30.792;2023-07-31T08:12:43;20.13;;;14.38;;
73104;SDS011;61296;50.526;30.792;2023-07-31T08:28:05;15.88;;;12.43;;
73104;SDS011;61296;50.526;30.792;2023-07-31T08:43:25;17.50;;;12.80;;
73104;SDS011;61296;50.526;30.792;2023-07-31T08:58:46;13.07;;;10.90;;
73104;SDS011;61296;50.526;30.792;2023-07-31T09:14:07;15.95;;;11.68;;
73104;SDS011;61296;50.526;30.792;2023-07-31T09:29:28;14.57;;;10.80;;
73104;SDS011;61296;50.526;30.792;2023-07-31T09:44:48;18.83;;;11.73;;
73104;SDS011;61296;50.526;30.792;2023-07-31T10:00:08;18.30;;;11.93;;
73104;SDS011;61296;50.526;30.792;2023-07-31T10:15:30;16.50;;;13.30;;
73104;SDS011;61296;50.526;30.792;2023-07-31T10:30:50;17.50;;;13.02;;
73104;SDS011;61296;50.526;30.792;2023-07-31T10:46:14;38.03;;;13.95;;
73104;SDS011;61296;50.526;30.792;2023-07-31T11:17:13;17.13;;;12.32;;
73104;SDS011;61296;50.526;30.792;2023-07-31T11:32:33;15.10;;;10.57;;
73104;SDS011;61296;50.526;30.792;2023-07-31T11:47:52;14.27;;;9.10;;
73104;SDS011;61296;50.526;30.792;2023-07-31T12:03:13;30.83;;;8.60;;
73104;SDS011;61296;50.526;30.792;2023-07-31T12:18:35;11.38;;;7.95;;
73104;SDS011;61296;50.526;30.792;2023-07-31T12:33:56;11.38;;;6.63;;
73104;SDS011;61296;50.526;30.792;2023-07-31T12:49:16;7.03;;;6.25;;
73104;SDS011;61296;50.526;30.792;2023-07-31T13:04:37;31.20;;;8.23;;
73104;SDS011;61296;50.526;30.792;2023-07-31T13:19:57;9.02;;;6.60;;
73104;SDS011;61296;50.526;30.792;2023-07-31T13:35:17;8.20;;;6.65;;
73104;SDS011;61296;50.526;30.792;2023-07-31T13:50:39;16.75;;;6.80;;
73104;SDS011;61296;50.526;30.792;2023-07-31T14:05:58;11.93;;;7.20;;
73104;SDS011;61296;50.526;30.792;2023-07-31T14:21:21;8.93;;;6.55;;
73104;SDS011;61296;50.526;30.792;2023-07-31T14:36:40;16.75;;;7.53;;
73104;SDS011;61296;50.526;30.792;2023-07-31T14:52:00;13.52;;;7.68;;
73104;SDS011;61296;50.526;30.792;2023-07-31T15:07:19;18.88;;;8.90;;
73104;SDS011;61296;50.526;30.792;2023-07-31T15:22:38;40.25;;;11.48;;
73104;SDS011;61296;50.526;30.792;2023-07-31T15:38:00;15.20;;;10.32;;
73104;SDS011;61296;50.526;30.792;2023-07-31T15:53:20;26.38;;;10.00;;
73104;SDS011;61296;50.526;30.792;2023-07-31T16:08:39;25.25;;;9.20;;
73104;SDS011;61296;50.526;30.792;2023-07-31T16:24:01;14.60;;;8.13;;
73104;SDS011;61296;50.526;30.792;2023-07-31T16:39:20;18.48;;;9.63;;
73104;SDS011;61296;50.526;30.792;2023-07-31T16:54:39;18.67;;;9.90;;
73104;SDS011;61296;50.526;30.792;2023-07-31T17:09:59;12.93;;;8.70;;
73104;SDS011;61296;50.526;30.792;2023-07-31T17:25:19;15.82;;;9.75;;
73104;SDS011;61296;50.526;30.792;2023-07-31T17:40:39;11.73;;;9.20;;
73104;SDS011;61296;50.526;30.792;2023-07-31T17:55:58;13.75;;;10.65;;
73104;SDS011;61296;50.526;30.792;2023-07-31T18:11:18;30.48;;;16.88;;
73104;SDS011;61296;50.526;30.792;2023-07-31T18:26:39;24.50;;;14.48;;
73104;SDS011;61296;50.526;30.792;2023-07-31T18:41:58;18.38;;;12.77;;
73104;SDS011;61296;50.526;30.792;2023-07-31T18:57:18;16.50;;;13.10;;
73104;SDS011;61296;50.526;30.792;2023-07-31T19:12:38;17.42;;;12.55;;
73104;SDS011;61296;50.526;30.792;2023-07-31T19:27:57;16.75;;;12.43;;
73104;SDS011;61296;50.526;30.792;2023-07-31T19:43:16;17.63;;;12.50;;
73104;SDS011;61296;50.526;30.792;2023-07-31T19:58:35;17.08;;;12.52;;
73104;SDS011;61296;50.526;30.792;2023-07-31T20:13:55;13.32;;;10.85;;
73104;SDS011;61296;50.526;30.792;2023-07-31T20:29:15;17.23;;;12.77;;
73104;SDS011;61296;50.526;30.792;2023-07-31T20:44:35;21.00;;;13.23;;
73104;SDS011;61296;50.526;30.792;2023-07-31T20:59:55;15.63;;;12.20;;
73104;SDS011;61296;50.526;30.792;2023-07-31T21:15:14;15.25;;;12.38;;
73104;SDS011;61296;50.526;30.792;2023-07-31T21:30:33;17.77;;;14.15;;
73104;SDS011;61296;50.526;30.792;2023-07-31T21:45:53;17.13;;;12.90;;
73104;SDS011;61296;50.526;30.792;2023-07-31T22:01:13;16.55;;;12.60;;
73104;SDS011;61296;50.526;30.792;2023-07-31T22:16:32;18.35;;;14.73;;
73104;SDS011;61296;50.526;30.792;2023-07-31T22:31:54;16.33;;;12.70;;
73104;SDS011;61296;50.526;30.792;2023-07-31T22:47:13;15.68;;;12.68;;
73104;SDS011;61296;50.526;30.792;2023-07-31T23:02:33;14.93;;;12.75;;
73104;SDS011;61296;50.526;30.792;2023-07-31T23:17:52;15.20;;;12.88;;
73104;SDS011;61296;50.526;30.792;2023-07-31T23:33:15;16.90;;;13.00;;
73104;SDS011;61296;50.526;30.792;2023-07-31T23:48:35;15.73;;;12.15;;
